createdAt,value
2023-04-15T00:03:28.212Z,5.25
2023-04-15T00:07:29.689Z,5.25
2023-04-15T00:11:31.357Z,5.28
2023-04-15T00:15:34.135Z,5.30
2023-04-15T00:19:35.551Z,5.28
2023-04-15T00:23:37.043Z,5.26
2023-04-15T00:27:38.564Z,5.28
2023-04-15T00:31:41.400Z,5.28
2023-04-15T00:35:42.942Z,5.27
2023-04-15T00:39:44.346Z,5.26
2023-04-15T00:43:45.783Z,5.24
2023-04-15T00:47:48.627Z,5.32
2023-04-15T00:51:50.293Z,5.28
2023-04-15T00:55:51.724Z,5.28
2023-04-15T00:59:53.577Z,5.29
2023-04-15T01:03:57.530Z,5.30
2023-04-15T01:07:59.149Z,5.25
2023-04-15T01:12:00.782Z,5.29
2023-04-15T01:16:02.535Z,5.33
2023-04-15T01:20:07.129Z,5.34
2023-04-15T01:24:10.098Z,5.26
2023-04-15T01:28:12.962Z,5.31
2023-04-15T01:32:14.411Z,5.28
2023-04-15T01:36:15.808Z,5.36
2023-04-15T01:40:17.313Z,5.32
2023-04-15T01:44:20.073Z,5.34
2023-04-15T01:48:21.570Z,5.28
2023-04-15T01:52:23.002Z,5.31
2023-04-15T01:56:24.504Z,5.30
2023-04-15T02:00:27.389Z,5.35
2023-04-15T02:04:29.049Z,5.43
2023-04-15T02:08:30.563Z,5.40
2023-04-15T02:12:31.970Z,5.41
2023-04-15T02:16:34.795Z,5.36
2023-04-15T02:20:36.256Z,5.38
2023-04-15T02:24:37.698Z,5.37
2023-04-15T02:28:39.114Z,5.37
2023-04-15T02:32:41.894Z,5.39
2023-04-15T02:36:43.374Z,5.32
2023-04-15T02:40:44.801Z,5.32
2023-04-15T02:44:46.189Z,5.37
2023-04-15T02:48:48.996Z,5.38
2023-04-15T02:52:50.513Z,5.36
2023-04-15T02:56:51.957Z,5.34
2023-04-15T03:00:53.424Z,5.38
2023-04-15T03:04:56.170Z,5.43
2023-04-15T03:08:57.560Z,5.44
2023-04-15T03:12:58.998Z,5.48
2023-04-15T03:17:00.429Z,5.36
2023-04-15T03:21:03.438Z,5.36
2023-04-15T03:25:05.682Z,5.43
2023-04-15T03:29:07.137Z,5.38
2023-04-15T03:33:08.643Z,5.43
2023-04-15T03:37:11.435Z,5.45
2023-04-15T03:41:13.061Z,5.42
2023-04-15T03:45:14.662Z,5.38
2023-04-15T03:49:16.087Z,5.41
2023-04-15T03:53:18.948Z,5.41
2023-04-15T03:57:20.372Z,5.39
2023-04-15T04:01:21.772Z,5.36
2023-04-15T04:05:23.221Z,5.39
2023-04-15T04:09:26.089Z,5.44
2023-04-15T04:13:27.551Z,5.47
2023-04-15T04:17:29.060Z,5.42
2023-04-15T04:21:30.657Z,5.46
2023-04-15T04:25:33.439Z,5.54
2023-04-15T04:29:34.860Z,5.50
2023-04-15T04:33:36.274Z,5.47
2023-04-15T04:37:37.887Z,5.51
2023-04-15T04:41:40.806Z,5.50
2023-04-15T04:45:42.293Z,5.55
2023-04-15T04:49:43.818Z,5.54
2023-04-15T04:53:45.272Z,5.56
2023-04-15T04:57:48.198Z,5.62
2023-04-15T05:01:50.071Z,5.70
2023-04-15T05:05:51.823Z,5.68
2023-04-15T05:09:53.320Z,5.66
2023-04-15T05:13:56.066Z,5.73
2023-04-15T05:17:57.497Z,5.74
2023-04-15T05:21:59.011Z,5.72
2023-04-15T05:26:00.466Z,5.80
2023-04-15T05:30:03.471Z,5.79
2023-04-15T05:34:04.974Z,5.83
2023-04-15T05:38:06.390Z,5.88
2023-04-15T05:42:08.155Z,5.94
2023-04-15T05:46:10.924Z,5.99
2023-04-15T05:50:12.447Z,6.07
2023-04-15T05:54:13.955Z,6.09
2023-04-15T05:58:15.381Z,6.12
2023-04-15T06:02:18.332Z,6.19
2023-04-15T06:06:19.905Z,6.17
2023-04-15T06:10:21.344Z,6.18
2023-04-15T06:14:22.816Z,6.20
2023-04-15T06:18:25.575Z,6.21
2023-04-15T06:22:27.152Z,6.25
2023-04-15T06:26:28.637Z,6.26
2023-04-15T06:30:30.063Z,6.22
2023-04-15T06:34:32.976Z,6.17
2023-04-15T06:38:34.402Z,6.20
2023-04-15T06:42:36.050Z,6.30
2023-04-15T06:46:37.498Z,6.32
2023-04-15T06:50:40.445Z,6.33
2023-04-15T06:54:41.901Z,6.37
2023-04-15T06:58:43.327Z,6.39
2023-04-15T07:02:45.169Z,6.38
2023-04-15T07:06:48.043Z,6.42
2023-04-15T07:10:49.570Z,6.44
2023-04-15T07:14:51.078Z,6.50
2023-04-15T07:18:52.539Z,6.49
2023-04-15T07:22:55.422Z,6.50
2023-04-15T07:26:58.551Z,6.58
2023-04-15T07:31:01.056Z,6.69
2023-04-15T07:35:02.579Z,6.83
2023-04-15T07:39:05.371Z,6.99
2023-04-15T07:43:06.785Z,6.96
2023-04-15T07:47:08.202Z,7.00
2023-04-15T07:51:09.726Z,6.81
2023-04-15T07:55:12.475Z,6.73
2023-04-15T07:59:14.299Z,6.76
2023-04-15T08:03:16.004Z,6.90
2023-04-15T08:07:17.504Z,6.89
2023-04-15T08:11:20.602Z,6.94
2023-04-15T08:15:22.020Z,7.21
2023-04-15T08:19:23.421Z,7.41
2023-04-15T08:23:24.848Z,7.37
2023-04-15T08:27:28.023Z,7.32
2023-04-15T08:31:29.750Z,7.31
2023-04-15T08:35:31.220Z,7.41
2023-04-15T08:39:32.650Z,7.41
2023-04-15T08:43:42.457Z,7.43
2023-04-15T08:47:47.098Z,7.43
2023-04-15T08:51:49.290Z,7.46
2023-04-15T08:55:52.693Z,7.46
2023-04-15T08:59:56.279Z,7.53
2023-04-15T09:03:59.486Z,7.59
2023-04-15T09:08:01.009Z,7.65
2023-04-15T09:12:02.489Z,7.67
2023-04-15T09:16:06.752Z,7.71
2023-04-15T09:20:09.677Z,7.88
2023-04-15T09:24:11.108Z,8.08
2023-04-15T09:28:12.560Z,8.41
2023-04-15T09:32:16.333Z,8.66
2023-04-15T09:36:17.957Z,8.83
2023-04-15T09:40:31.338Z,8.91
2023-04-15T09:44:32.827Z,9.05
2023-04-15T09:48:36.727Z,7.95
2023-04-15T09:52:42.284Z,7.61
2023-04-15T09:56:43.739Z,7.36
2023-04-15T10:00:47.538Z,7.03
2023-04-15T10:04:52.241Z,7.05
2023-04-15T10:08:54.168Z,6.99
2023-04-15T10:12:55.954Z,7.12
2023-04-15T10:17:01.086Z,7.14
2023-04-15T10:21:05.491Z,7.17
2023-04-15T10:25:07.893Z,7.10
2023-04-15T10:29:10.642Z,6.96
2023-04-15T10:33:12.887Z,6.84
2023-04-15T10:37:21.127Z,6.94
2023-04-15T10:41:24.218Z,6.95
2023-04-15T10:45:27.393Z,6.96
2023-04-15T10:49:28.852Z,6.92
2023-04-15T10:53:31.654Z,7.10
2023-04-15T10:57:41.049Z,7.32
2023-04-15T11:01:54.400Z,7.42
2023-04-15T11:05:55.935Z,7.45
2023-04-15T11:09:58.840Z,7.45
2023-04-15T11:14:00.467Z,7.38
2023-04-15T11:18:10.987Z,7.37
2023-04-15T11:22:12.503Z,7.61
2023-04-15T11:26:15.280Z,7.68
2023-04-15T11:30:19.299Z,7.92
2023-04-15T11:34:22.934Z,8.11
2023-04-15T11:38:26.570Z,8.06
2023-04-15T11:42:39.216Z,8.08
2023-04-15T11:46:48.077Z,7.98
2023-04-15T11:50:54.703Z,8.07
2023-04-15T11:55:03.223Z,8.25
2023-04-15T11:59:05.971Z,8.49
2023-04-15T12:03:15.053Z,8.51
2023-04-15T12:07:19.031Z,8.45
2023-04-15T12:11:31.380Z,8.37
2023-04-15T12:15:37.910Z,8.37
2023-04-15T12:19:40.984Z,8.45
2023-04-15T12:23:48.835Z,8.18
2023-04-15T12:27:53.269Z,8.13
2023-04-15T12:31:57.502Z,8.24
2023-04-15T12:35:58.917Z,8.36
2023-04-15T12:40:00.426Z,8.35
2023-04-15T12:44:02.015Z,8.26
2023-04-15T12:48:05.413Z,8.18
2023-04-15T12:52:06.849Z,8.09
2023-04-15T12:56:08.445Z,8.09
2023-04-15T13:00:11.204Z,8.04
2023-04-15T13:04:14.275Z,8.17
2023-04-15T13:08:15.748Z,8.18
2023-04-15T13:12:17.180Z,8.35
2023-04-15T13:16:18.778Z,8.51
2023-04-15T13:20:21.635Z,8.62
2023-04-15T13:24:23.136Z,8.79
2023-04-15T13:28:24.680Z,8.86
2023-04-15T13:32:26.447Z,9.04
2023-04-15T13:36:29.257Z,9.16
2023-04-15T13:40:30.709Z,9.24
2023-04-15T13:44:32.133Z,9.33
2023-04-15T13:48:33.594Z,9.55
2023-04-15T13:52:36.359Z,9.71
2023-04-15T13:56:37.830Z,9.87
2023-04-15T14:00:39.278Z,10.04
2023-04-15T14:04:40.692Z,9.87
2023-04-15T14:08:43.761Z,9.65
2023-04-15T14:12:45.281Z,9.52
2023-04-15T14:16:46.904Z,9.70
2023-04-15T14:20:48.430Z,9.86
2023-04-15T14:24:51.280Z,9.97
2023-04-15T14:28:52.868Z,9.75
2023-04-15T14:32:54.461Z,9.94
2023-04-15T14:36:56.549Z,9.84
2023-04-15T14:40:59.537Z,9.76
2023-04-15T14:45:01.044Z,9.79
2023-04-15T14:49:04.230Z,10.12
2023-04-15T14:53:06.064Z,10.17
2023-04-15T14:57:09.068Z,10.31
2023-04-15T15:01:10.637Z,10.48
2023-04-15T15:05:12.546Z,10.68
2023-04-15T15:09:14.115Z,10.18
2023-04-15T15:13:17.619Z,10.32
2023-04-15T15:17:19.130Z,10.60
2023-04-15T15:21:20.610Z,10.68
2023-04-15T15:25:22.363Z,10.45
2023-04-15T15:29:25.380Z,10.30
2023-04-15T15:33:28.082Z,10.48
2023-04-15T15:37:31.136Z,10.24
2023-04-15T15:41:32.737Z,9.88
2023-04-15T15:45:38.124Z,10.09
2023-04-15T15:49:39.854Z,9.79
2023-04-15T15:53:41.335Z,9.78
2023-04-15T15:57:42.817Z,9.75
2023-04-15T16:01:45.766Z,9.68
2023-04-15T16:05:47.260Z,9.66
2023-04-15T16:09:48.833Z,9.49
2023-04-15T16:13:50.932Z,9.34
2023-04-15T16:17:53.931Z,9.31
2023-04-15T16:21:55.565Z,9.40
2023-04-15T16:25:57.038Z,9.34
2023-04-15T16:29:58.745Z,9.33
2023-04-15T16:34:02.395Z,9.32
2023-04-15T16:38:04.020Z,9.29
2023-04-15T16:42:05.551Z,9.29
2023-04-15T16:46:08.528Z,9.22
2023-04-15T16:50:11.588Z,9.11
2023-04-15T16:54:13.084Z,8.91
2023-04-15T16:58:14.517Z,8.83
2023-04-15T17:02:16.146Z,8.75
2023-04-15T17:06:18.978Z,8.69
2023-04-15T17:10:20.421Z,8.63
2023-04-15T17:14:21.919Z,8.54
2023-04-15T17:18:23.370Z,8.45
2023-04-15T17:22:26.256Z,8.43
2023-04-15T17:26:27.793Z,8.36
2023-04-15T17:30:29.234Z,8.34
2023-04-15T17:34:49.568Z,8.32
2023-04-15T17:38:54.193Z,8.27
2023-04-15T17:42:55.590Z,8.19
2023-04-15T17:46:57.275Z,8.21
2023-04-15T17:50:58.771Z,8.17
2023-04-15T17:55:01.653Z,8.16
2023-04-15T17:59:03.106Z,8.11
2023-04-15T18:03:04.721Z,8.06
2023-04-15T18:07:06.353Z,7.99
2023-04-15T18:11:09.092Z,7.90
2023-04-15T18:15:11.584Z,7.81
2023-04-15T18:19:12.996Z,7.74
2023-04-15T18:23:14.425Z,7.66
2023-04-15T18:27:17.649Z,7.47
2023-04-15T18:31:19.079Z,7.41
2023-04-15T18:35:20.548Z,7.31
2023-04-15T18:39:21.994Z,7.26
2023-04-15T18:43:24.838Z,7.21
2023-04-15T18:47:27.163Z,7.11
2023-04-15T18:51:28.686Z,7.09
2023-04-15T18:55:30.130Z,7.06
2023-04-15T18:59:33.183Z,7.05
2023-04-15T19:03:35.203Z,7.06
2023-04-15T19:07:37.173Z,7.04
2023-04-15T19:11:38.587Z,7.02
2023-04-15T19:15:41.346Z,6.99
2023-04-15T19:19:42.752Z,6.97
2023-04-15T19:23:44.222Z,6.92
2023-04-15T19:27:45.668Z,6.85
2023-04-15T19:31:48.497Z,6.83
2023-04-15T19:35:50.046Z,6.91
2023-04-15T19:39:51.649Z,6.92
2023-04-15T19:43:53.125Z,6.91
2023-04-15T19:47:55.916Z,6.87
2023-04-15T19:51:57.355Z,6.79
2023-04-15T19:55:58.765Z,6.77
2023-04-15T20:00:00.203Z,6.78
2023-04-15T20:04:03.261Z,6.67
2023-04-15T20:08:05.056Z,6.61
2023-04-15T20:12:48.377Z,6.65
2023-04-15T20:16:28.163Z,6.70
2023-04-15T20:20:31.066Z,6.69
2023-04-15T20:24:32.467Z,6.64
2023-04-15T20:28:33.889Z,6.56
2023-04-15T20:32:36.107Z,6.48
2023-04-15T20:36:39.136Z,6.42
2023-04-15T20:40:41.774Z,6.37
2023-04-15T20:44:43.352Z,6.27
2023-04-15T20:48:44.774Z,6.16
2023-04-15T20:52:47.571Z,6.08
2023-04-15T20:56:48.985Z,6.07
2023-04-15T21:00:50.425Z,5.95
2023-04-15T21:04:51.853Z,5.93
2023-04-15T21:08:54.596Z,5.91
2023-04-15T21:12:56.010Z,5.98
2023-04-15T21:16:57.746Z,5.92
2023-04-15T21:21:00.435Z,5.89
2023-04-15T21:25:03.439Z,5.83
2023-04-15T21:29:05.236Z,5.76
2023-04-15T21:33:07.643Z,5.77
2023-04-15T21:37:09.416Z,5.67
2023-04-15T21:41:12.146Z,5.63
2023-04-15T21:45:13.748Z,5.63
2023-04-15T21:49:15.176Z,5.65
2023-04-15T21:53:16.623Z,5.71
2023-04-15T21:57:19.392Z,5.79
2023-04-15T22:01:21.057Z,5.91
2023-04-15T22:05:22.542Z,5.99
2023-04-15T22:09:23.980Z,6.03
2023-04-15T22:13:26.711Z,6.12
2023-04-15T22:17:28.220Z,6.14
2023-04-15T22:21:29.637Z,6.11
2023-04-15T22:25:32.522Z,6.09
2023-04-15T22:29:35.295Z,6.04
2023-04-15T22:33:36.733Z,6.03
2023-04-15T22:37:38.196Z,6.13
2023-04-15T22:41:39.788Z,6.15
2023-04-15T22:45:42.528Z,6.23
2023-04-15T22:49:43.932Z,6.32
2023-04-15T22:53:45.343Z,6.37
2023-04-15T22:57:46.746Z,6.39
2023-04-15T23:01:49.633Z,6.40
2023-04-15T23:05:51.161Z,6.42
2023-04-15T23:09:52.645Z,6.45
2023-04-15T23:13:54.079Z,6.49
2023-04-15T23:17:56.861Z,6.48
2023-04-15T23:21:58.373Z,6.53
2023-04-15T23:25:59.790Z,6.55
2023-04-15T23:30:01.285Z,6.46
2023-04-15T23:34:04.236Z,6.33
2023-04-15T23:38:05.629Z,6.22
2023-04-15T23:42:07.082Z,6.08
2023-04-15T23:46:08.492Z,6.02
2023-04-15T23:50:11.522Z,6.06
2023-04-15T23:54:12.923Z,6.14
2023-04-15T23:58:14.360Z,6.18
